Maersk Essen — V7UQ8 — position and weather

sailwx.info

Track history (hours):
 
Tides and Currents Weather Stations Pressure Air Temp Water Temp Dewpoint Dewpoint Depression Visibility Wind Speed Wind Dir Waves Ship Positions

Maersk Essen

Last reported at 2017-Feb-25 19:32 UTC. Time now 2017-Feb-27 00:07 UTC.
Position N 34°57' E 139°26'.

Length 367 m; draft 12.2 m.

Type: Ship (hazmat cat A). MMSI: 538004007.

Date/timePositionNaut miles runAvg speedWind from/ knotsBaromVisibWave heightAir tempDewpointWater temp
2017-Feb-25 19:32N 34°57' E 139°26'1313.6
2017-Feb-25 18:33N 35°05' E 139°39'1212.0
2017-Feb-25 17:33N 35°16' E 139°46'10 9.5
2017-Feb-25 16:33N 35°24' E 139°40'0 0.3
2017-Feb-25 15:33N 35°24' E 139°41'0 0.0
2017-Feb-25 14:33N 35°24' E 139°41'0 0.0
2017-Feb-25 13:33N 35°24' E 139°41'0 0.0
2017-Feb-25 12:33N 35°24' E 139°41'0 0.0
2017-Feb-25 11:33N 35°24' E 139°41'2 1.9
2017-Feb-25 10:33N 35°22' E 139°42'10 9.5
2017-Feb-25 09:33N 35°14' E 139°47'9 9.4
2017-Feb-25 08:33N 35°05' E 139°45'1313.3
2017-Feb-25 07:33N 34°52' E 139°43'1716.7
2017-Feb-25 06:33N 34°52' E 140°03'  
Track history (hours):
 
Tides and Currents Weather Stations Pressure Air Temp Water Temp Dewpoint Dewpoint Depression Visibility Wind Speed Wind Dir Waves Ship Positions

Maersk Essen

Last reported at 2017-Feb-25 19:32 UTC. Time now 2017-Feb-27 00:07 UTC.
Position N 34°57' E 139°26'.

Length 367 m; draft 12.2 m.

Type: Ship (hazmat cat A). MMSI: 538004007.

Date/timePositionNaut miles runAvg speedWind from/ knotsBaromVisibWave heightAir tempDewpointWater temp
2017-Feb-25 19:32N 34°57' E 139°26'1313.6
2017-Feb-25 18:33N 35°05' E 139°39'1212.0
2017-Feb-25 17:33N 35°16' E 139°46'10 9.5
2017-Feb-25 16:33N 35°24' E 139°40'0 0.3
2017-Feb-25 15:33N 35°24' E 139°41'0 0.0
2017-Feb-25 14:33N 35°24' E 139°41'0 0.0
2017-Feb-25 13:33N 35°24' E 139°41'0 0.0
2017-Feb-25 12:33N 35°24' E 139°41'0 0.0
2017-Feb-25 11:33N 35°24' E 139°41'2 1.9
2017-Feb-25 10:33N 35°22' E 139°42'10 9.5
2017-Feb-25 09:33N 35°14' E 139°47'9 9.4
2017-Feb-25 08:33N 35°05' E 139°45'1313.3
2017-Feb-25 07:33N 34°52' E 139°43'1716.7
2017-Feb-25 06:33N 34°52' E 140°03'  

Dump ship's entire track history